sensor_id;sensor_type;location;lat;lon;timestamp;temperature;humidity
16263;DHT22;8239;48.594;8.598;2022-09-24T00:00:46;8.60;99.90
16263;DHT22;8239;48.594;8.598;2022-09-24T00:03:17;8.50;99.90
16263;DHT22;8239;48.594;8.598;2022-09-24T00:05:46;8.50;99.90
16263;DHT22;8239;48.594;8.598;2022-09-24T00:08:14;8.50;99.90
16263;DHT22;8239;48.594;8.598;2022-09-24T00:10:43;8.40;99.90
16263;DHT22;8239;48.594;8.598;2022-09-24T00:13:12;8.40;99.90
16263;DHT22;8239;48.594;8.598;2022-09-24T00:15:42;8.30;99.90
16263;DHT22;8239;48.594;8.598;2022-09-24T00:18:10;8.20;99.90
16263;DHT22;8239;48.594;8.598;2022-09-24T00:20:38;8.20;99.90
16263;DHT22;8239;48.594;8.598;2022-09-24T00:25:39;8.20;99.90
16263;DHT22;8239;48.594;8.598;2022-09-24T00:28:24;8.10;99.90
16263;DHT22;8239;48.594;8.598;2022-09-24T00:30:51;8.10;99.90
16263;DHT22;8239;48.594;8.598;2022-09-24T00:33:18;8.00;99.90
16263;DHT22;8239;48.594;8.598;2022-09-24T00:35:45;8.00;99.90
16263;DHT22;8239;48.594;8.598;2022-09-24T00:38:12;7.90;99.90
16263;DHT22;8239;48.594;8.598;2022-09-24T00:40:41;7.80;99.90
16263;DHT22;8239;48.594;8.598;2022-09-24T00:43:21;7.80;99.90
16263;DHT22;8239;48.594;8.598;2022-09-24T00:45:50;7.70;99.90
16263;DHT22;8239;48.594;8.598;2022-09-24T00:48:17;7.70;99.90
16263;DHT22;8239;48.594;8.598;2022-09-24T00:50:45;7.60;99.90
16263;DHT22;8239;48.594;8.598;2022-09-24T00:53:15;7.60;99.90
16263;DHT22;8239;48.594;8.598;2022-09-24T00:55:47;7.50;99.90
16263;DHT22;8239;48.594;8.598;2022-09-24T00:58:16;7.50;99.90
16263;DHT22;8239;48.594;8.598;2022-09-24T01:00:44;7.50;99.90
16263;DHT22;8239;48.594;8.598;2022-09-24T01:03:14;7.50;99.90
16263;DHT22;8239;48.594;8.598;2022-09-24T01:05:42;7.40;99.90
16263;DHT22;8239;48.594;8.598;2022-09-24T01:08:15;7.40;99.90
16263;DHT22;8239;48.594;8.598;2022-09-24T01:11:01;7.40;99.90
16263;DHT22;8239;48.594;8.598;2022-09-24T01:13:39;7.40;99.90
16263;DHT22;8239;48.594;8.598;2022-09-24T01:16:13;7.40;99.90
16263;DHT22;8239;48.594;8.598;2022-09-24T01:18:45;7.30;99.90
16263;DHT22;8239;48.594;8.598;2022-09-24T01:21:24;7.30;99.90
16263;DHT22;8239;48.594;8.598;2022-09-24T01:24:14;7.30;99.90
16263;DHT22;8239;48.594;8.598;2022-09-24T01:27:05;7.30;99.90
16263;DHT22;8239;48.594;8.598;2022-09-24T01:29:41;7.20;99.90
16263;DHT22;8239;48.594;8.598;2022-09-24T01:32:14;7.20;99.90
16263;DHT22;8239;48.594;8.598;2022-09-24T01:34:48;7.20;99.90
16263;DHT22;8239;48.594;8.598;2022-09-24T01:37:18;7.20;99.90
16263;DHT22;8239;48.594;8.598;2022-09-24T01:39:47;7.20;99.90
16263;DHT22;8239;48.594;8.598;2022-09-24T01:42:17;7.20;99.90
16263;DHT22;8239;48.594;8.598;2022-09-24T01:44:47;7.20;99.90
16263;DHT22;8239;48.594;8.598;2022-09-24T01:47:19;7.30;99.90
16263;DHT22;8239;48.594;8.598;2022-09-24T01:49:48;7.30;99.90
16263;DHT22;8239;48.594;8.598;2022-09-24T01:52:23;7.40;99.90
16263;DHT22;8239;48.594;8.598;2022-09-24T01:54:51;7.40;99.90
16263;DHT22;8239;48.594;8.598;2022-09-24T01:57:23;7.40;99.90
16263;DHT22;8239;48.594;8.598;2022-09-24T01:59:56;7.40;99.90
16263;DHT22;8239;48.594;8.598;2022-09-24T02:02:29;7.40;99.90
16263;DHT22;8239;48.594;8.598;2022-09-24T02:05:02;7.50;99.90
16263;DHT22;8239;48.594;8.598;2022-09-24T02:07:35;7.50;99.90
16263;DHT22;8239;48.594;8.598;2022-09-24T02:10:04;7.50;99.90
16263;DHT22;8239;48.594;8.598;2022-09-24T02:12:33;7.60;99.90
16263;DHT22;8239;48.594;8.598;2022-09-24T02:15:10;7.60;99.90
16263;DHT22;8239;48.594;8.598;2022-09-24T02:17:41;7.70;99.90
16263;DHT22;8239;48.594;8.598;2022-09-24T02:20:12;7.70;99.90
16263;DHT22;8239;48.594;8.598;2022-09-24T02:22:40;7.70;99.90
16263;DHT22;8239;48.594;8.598;2022-09-24T02:25:11;7.80;99.90
16263;DHT22;8239;48.594;8.598;2022-09-24T02:27:39;7.80;99.90
16263;DHT22;8239;48.594;8.598;2022-09-24T02:30:09;7.80;99.90
16263;DHT22;8239;48.594;8.598;2022-09-24T02:32:39;7.90;99.90
16263;DHT22;8239;48.594;8.598;2022-09-24T02:35:09;7.90;99.90
16263;DHT22;8239;48.594;8.598;2022-09-24T02:37:37;7.90;99.90
16263;DHT22;8239;48.594;8.598;2022-09-24T02:40:07;7.90;99.90
16263;DHT22;8239;48.594;8.598;2022-09-24T02:42:35;8.00;99.90
16263;DHT22;8239;48.594;8.598;2022-09-24T02:45:02;8.00;99.90
16263;DHT22;8239;48.594;8.598;2022-09-24T02:47:31;8.00;99.90
16263;DHT22;8239;48.594;8.598;2022-09-24T02:49:58;8.00;99.90
16263;DHT22;8239;48.594;8.598;2022-09-24T02:52:25;8.00;99.90
16263;DHT22;8239;48.594;8.598;2022-09-24T02:54:53;8.10;99.90
16263;DHT22;8239;48.594;8.598;2022-09-24T02:57:19;8.10;99.90
16263;DHT22;8239;48.594;8.598;2022-09-24T02:59:47;8.10;99.90
16263;DHT22;8239;48.594;8.598;2022-09-24T03:02:14;8.10;99.90
16263;DHT22;8239;48.594;8.598;2022-09-24T03:04:42;8.10;99.90
16263;DHT22;8239;48.594;8.598;2022-09-24T03:07:09;8.00;99.90
16263;DHT22;8239;48.594;8.598;2022-09-24T03:09:39;8.00;99.90
16263;DHT22;8239;48.594;8.598;2022-09-24T03:12:06;8.00;99.90
16263;DHT22;8239;48.594;8.598;2022-09-24T03:14:33;8.00;99.90
16263;DHT22;8239;48.594;8.598;2022-09-24T03:16:59;8.00;99.90
16263;DHT22;8239;48.594;8.598;2022-09-24T03:19:26;8.00;99.90
16263;DHT22;8239;48.594;8.598;2022-09-24T03:21:55;8.00;99.90
16263;DHT22;8239;48.594;8.598;2022-09-24T03:24:22;8.00;99.90
16263;DHT22;8239;48.594;8.598;2022-09-24T03:26:49;8.00;99.90
16263;DHT22;8239;48.594;8.598;2022-09-24T03:29:16;8.00;99.90
16263;DHT22;8239;48.594;8.598;2022-09-24T03:32:03;8.00;99.90
16263;DHT22;8239;48.594;8.598;2022-09-24T03:34:29;8.00;99.90
16263;DHT22;8239;48.594;8.598;2022-09-24T03:36:57;8.00;99.90
16263;DHT22;8239;48.594;8.598;2022-09-24T03:39:24;8.00;99.90
16263;DHT22;8239;48.594;8.598;2022-09-24T03:41:51;8.00;99.90
16263;DHT22;8239;48.594;8.598;2022-09-24T03:44:18;8.00;99.90
16263;DHT22;8239;48.594;8.598;2022-09-24T03:46:45;8.00;99.90
16263;DHT22;8239;48.594;8.598;2022-09-24T03:49:12;8.10;99.90
16263;DHT22;8239;48.594;8.598;2022-09-24T03:51:39;8.10;99.90
16263;DHT22;8239;48.594;8.598;2022-09-24T03:54:07;8.10;99.90
16263;DHT22;8239;48.594;8.598;2022-09-24T03:56:34;8.10;99.90
16263;DHT22;8239;48.594;8.598;2022-09-24T03:59:01;8.20;99.90
16263;DHT22;8239;48.594;8.598;2022-09-24T04:01:28;8.20;99.90
16263;DHT22;8239;48.594;8.598;2022-09-24T04:03:57;8.20;99.90
16263;DHT22;8239;48.594;8.598;2022-09-24T04:06:26;8.30;99.90
16263;DHT22;8239;48.594;8.598;2022-09-24T04:08:54;8.30;99.90
16263;DHT22;8239;48.594;8.598;2022-09-24T04:11:22;8.40;99.90
16263;DHT22;8239;48.594;8.598;2022-09-24T04:13:49;8.40;99.90
16263;DHT22;8239;48.594;8.598;2022-09-24T04:16:16;8.50;99.90
16263;DHT22;8239;48.594;8.598;2022-09-24T04:18:43;8.50;99.90
16263;DHT22;8239;48.594;8.598;2022-09-24T04:21:13;8.50;99.90
16263;DHT22;8239;48.594;8.598;2022-09-24T04:23:40;8.50;99.90
16263;DHT22;8239;48.594;8.598;2022-09-24T04:26:07;8.50;99.90
16263;DHT22;8239;48.594;8.598;2022-09-24T04:28:36;8.60;99.90
16263;DHT22;8239;48.594;8.598;2022-09-24T04:31:03;8.60;99.90
16263;DHT22;8239;48.594;8.598;2022-09-24T04:33:30;8.60;99.90
16263;DHT22;8239;48.594;8.598;2022-09-24T04:35:57;8.60;99.90
16263;DHT22;8239;48.594;8.598;2022-09-24T04:38:24;8.60;99.90
16263;DHT22;8239;48.594;8.598;2022-09-24T04:40:51;8.60;99.90
16263;DHT22;8239;48.594;8.598;2022-09-24T04:43:18;8.60;99.90
16263;DHT22;8239;48.594;8.598;2022-09-24T04:45:47;8.60;99.90
16263;DHT22;8239;48.594;8.598;2022-09-24T04:48:14;8.60;99.90
16263;DHT22;8239;48.594;8.598;2022-09-24T04:50:41;8.60;99.90
16263;DHT22;8239;48.594;8.598;2022-09-24T04:53:09;8.60;99.90
16263;DHT22;8239;48.594;8.598;2022-09-24T04:55:36;8.50;99.90
16263;DHT22;8239;48.594;8.598;2022-09-24T04:58:04;8.50;99.90
16263;DHT22;8239;48.594;8.598;2022-09-24T05:00:31;8.40;99.90
16263;DHT22;8239;48.594;8.598;2022-09-24T05:03:00;8.40;99.90
16263;DHT22;8239;48.594;8.598;2022-09-24T05:05:29;8.30;99.90
16263;DHT22;8239;48.594;8.598;2022-09-24T05:07:57;8.30;99.90
16263;DHT22;8239;48.594;8.598;2022-09-24T05:10:24;8.20;99.90
16263;DHT22;8239;48.594;8.598;2022-09-24T05:12:51;8.20;99.90
16263;DHT22;8239;48.594;8.598;2022-09-24T05:15:20;8.30;99.90
16263;DHT22;8239;48.594;8.598;2022-09-24T05:17:47;8.30;99.90
16263;DHT22;8239;48.594;8.598;2022-09-24T05:20:15;8.30;99.90
16263;DHT22;8239;48.594;8.598;2022-09-24T05:22:43;8.30;99.90
16263;DHT22;8239;48.594;8.598;2022-09-24T05:25:11;8.40;99.90
16263;DHT22;8239;48.594;8.598;2022-09-24T05:27:43;8.40;99.90
16263;DHT22;8239;48.594;8.598;2022-09-24T05:30:10;8.40;99.90
16263;DHT22;8239;48.594;8.598;2022-09-24T05:32:37;8.40;99.90
16263;DHT22;8239;48.594;8.598;2022-09-24T05:35:07;8.50;99.90
16263;DHT22;8239;48.594;8.598;2022-09-24T05:37:36;8.50;99.90
16263;DHT22;8239;48.594;8.598;2022-09-24T05:40:05;8.60;99.90
16263;DHT22;8239;48.594;8.598;2022-09-24T05:42:46;8.60;99.90
16263;DHT22;8239;48.594;8.598;2022-09-24T05:45:13;8.60;99.90
16263;DHT22;8239;48.594;8.598;2022-09-24T05:47:43;8.60;99.90
16263;DHT22;8239;48.594;8.598;2022-09-24T05:50:10;8.70;99.90
16263;DHT22;8239;48.594;8.598;2022-09-24T05:52:40;8.70;99.90
16263;DHT22;8239;48.594;8.598;2022-09-24T05:55:08;8.80;99.90
16263;DHT22;8239;48.594;8.598;2022-09-24T05:57:36;8.80;99.90
16263;DHT22;8239;48.594;8.598;2022-09-24T06:00:04;8.90;99.90
16263;DHT22;8239;48.594;8.598;2022-09-24T06:02:32;8.90;99.90
16263;DHT22;8239;48.594;8.598;2022-09-24T06:04:59;8.90;99.90
16263;DHT22;8239;48.594;8.598;2022-09-24T06:07:26;8.90;99.90
16263;DHT22;8239;48.594;8.598;2022-09-24T06:09:54;8.80;99.90
16263;DHT22;8239;48.594;8.598;2022-09-24T06:12:23;8.80;99.90
16263;DHT22;8239;48.594;8.598;2022-09-24T06:14:50;8.80;99.90
16263;DHT22;8239;48.594;8.598;2022-09-24T06:17:18;8.80;99.90
16263;DHT22;8239;48.594;8.598;2022-09-24T06:19:45;8.90;99.90
16263;DHT22;8239;48.594;8.598;2022-09-24T06:22:13;9.00;99.90
16263;DHT22;8239;48.594;8.598;2022-09-24T06:24:40;9.10;99.90
16263;DHT22;8239;48.594;8.598;2022-09-24T06:27:17;9.10;99.90
16263;DHT22;8239;48.594;8.598;2022-09-24T06:29:44;9.30;99.90
16263;DHT22;8239;48.594;8.598;2022-09-24T06:32:10;9.40;99.90
16263;DHT22;8239;48.594;8.598;2022-09-24T06:34:37;9.50;99.90
16263;DHT22;8239;48.594;8.598;2022-09-24T06:37:04;9.70;99.90
16263;DHT22;8239;48.594;8.598;2022-09-24T06:39:31;9.90;99.90
16263;DHT22;8239;48.594;8.598;2022-09-24T06:41:58;10.10;99.90
16263;DHT22;8239;48.594;8.598;2022-09-24T06:44:26;10.30;99.90
16263;DHT22;8239;48.594;8.598;2022-09-24T06:46:53;10.40;99.90
16263;DHT22;8239;48.594;8.598;2022-09-24T06:49:21;10.60;99.90
16263;DHT22;8239;48.594;8.598;2022-09-24T06:51:48;10.70;99.90
16263;DHT22;8239;48.594;8.598;2022-09-24T06:54:15;10.70;99.90
16263;DHT22;8239;48.594;8.598;2022-09-24T06:56:42;10.80;99.90
16263;DHT22;8239;48.594;8.598;2022-09-24T06:59:10;10.80;99.90
16263;DHT22;8239;48.594;8.598;2022-09-24T07:01:38;10.80;99.90
16263;DHT22;8239;48.594;8.598;2022-09-24T07:04:05;10.90;99.90
16263;DHT22;8239;48.594;8.598;2022-09-24T07:06:33;11.00;99.90
16263;DHT22;8239;48.594;8.598;2022-09-24T07:09:14;11.00;99.90
16263;DHT22;8239;48.594;8.598;2022-09-24T07:11:41;11.10;99.90
16263;DHT22;8239;48.594;8.598;2022-09-24T07:14:11;11.10;99.90
16263;DHT22;8239;48.594;8.598;2022-09-24T07:16:39;11.10;99.90
16263;DHT22;8239;48.594;8.598;2022-09-24T07:19:06;11.10;99.90
16263;DHT22;8239;48.594;8.598;2022-09-24T07:21:33;11.20;99.90
16263;DHT22;8239;48.594;8.598;2022-09-24T07:24:00;11.30;99.90
16263;DHT22;8239;48.594;8.598;2022-09-24T07:26:28;11.40;99.90
16263;DHT22;8239;48.594;8.598;2022-09-24T07:28:55;11.40;99.90
16263;DHT22;8239;48.594;8.598;2022-09-24T07:31:22;11.50;99.90
16263;DHT22;8239;48.594;8.598;2022-09-24T07:33:52;11.60;99.90
16263;DHT22;8239;48.594;8.598;2022-09-24T07:36:19;11.80;99.90
16263;DHT22;8239;48.594;8.598;2022-09-24T07:38:46;11.90;99.90
16263;DHT22;8239;48.594;8.598;2022-09-24T07:41:13;12.00;99.90
16263;DHT22;8239;48.594;8.598;2022-09-24T07:43:40;12.20;99.90
16263;DHT22;8239;48.594;8.598;2022-09-24T07:46:08;12.40;99.90
16263;DHT22;8239;48.594;8.598;2022-09-24T07:48:35;12.60;99.90
16263;DHT22;8239;48.594;8.598;2022-09-24T07:51:08;12.80;99.90
16263;DHT22;8239;48.594;8.598;2022-09-24T07:53:36;13.00;99.90
16263;DHT22;8239;48.594;8.598;2022-09-24T07:56:03;13.10;99.90
16263;DHT22;8239;48.594;8.598;2022-09-24T07:58:30;13.30;99.90
16263;DHT22;8239;48.594;8.598;2022-09-24T08:00:57;13.40;99.90
16263;DHT22;8239;48.594;8.598;2022-09-24T08:03:24;13.50;99.90
16263;DHT22;8239;48.594;8.598;2022-09-24T08:05:51;13.50;99.90
16263;DHT22;8239;48.594;8.598;2022-09-24T08:08:23;13.40;99.90
16263;DHT22;8239;48.594;8.598;2022-09-24T08:10:50;13.30;99.90
16263;DHT22;8239;48.594;8.598;2022-09-24T08:13:17;13.20;99.90
16263;DHT22;8239;48.594;8.598;2022-09-24T08:15:44;13.20;99.90
16263;DHT22;8239;48.594;8.598;2022-09-24T08:18:11;13.20;99.90
16263;DHT22;8239;48.594;8.598;2022-09-24T08:20:38;13.20;99.90
16263;DHT22;8239;48.594;8.598;2022-09-24T08:23:07;13.20;99.90
16263;DHT22;8239;48.594;8.598;2022-09-24T08:25:36;13.20;99.90
16263;DHT22;8239;48.594;8.598;2022-09-24T08:28:04;13.30;99.90
16263;DHT22;8239;48.594;8.598;2022-09-24T08:30:33;13.30;99.90
16263;DHT22;8239;48.594;8.598;2022-09-24T08:33:00;13.30;99.90
16263;DHT22;8239;48.594;8.598;2022-09-24T08:35:29;13.30;99.90
16263;DHT22;8239;48.594;8.598;2022-09-24T08:37:56;13.30;99.90
16263;DHT22;8239;48.594;8.598;2022-09-24T08:40:26;13.30;99.90
16263;DHT22;8239;48.594;8.598;2022-09-24T08:43:01;13.20;99.90
16263;DHT22;8239;48.594;8.598;2022-09-24T08:45:39;13.20;99.90
16263;DHT22;8239;48.594;8.598;2022-09-24T08:48:29;13.10;99.90
16263;DHT22;8239;48.594;8.598;2022-09-24T08:51:02;13.10;99.90
16263;DHT22;8239;48.594;8.598;2022-09-24T08:53:38;13.10;99.90
16263;DHT22;8239;48.594;8.598;2022-09-24T08:56:09;13.00;99.90
16263;DHT22;8239;48.594;8.598;2022-09-24T08:58:44;13.00;99.90
16263;DHT22;8239;48.594;8.598;2022-09-24T09:01:21;12.90;99.90
16263;DHT22;8239;48.594;8.598;2022-09-24T09:03:52;12.90;99.90
16263;DHT22;8239;48.594;8.598;2022-09-24T09:06:42;13.00;99.90
16263;DHT22;8239;48.594;8.598;2022-09-24T09:09:14;13.00;99.90
16263;DHT22;8239;48.594;8.598;2022-09-24T09:11:47;13.10;99.90
16263;DHT22;8239;48.594;8.598;2022-09-24T09:14:18;13.10;99.90
16263;DHT22;8239;48.594;8.598;2022-09-24T09:16:50;13.20;99.90
16263;DHT22;8239;48.594;8.598;2022-09-24T09:19:22;13.30;99.90
16263;DHT22;8239;48.594;8.598;2022-09-24T09:21:54;13.50;99.90
16263;DHT22;8239;48.594;8.598;2022-09-24T09:24:29;13.60;99.90
16263;DHT22;8239;48.594;8.598;2022-09-24T09:26:59;13.90;99.90
16263;DHT22;8239;48.594;8.598;2022-09-24T09:29:27;14.20;99.90
16263;DHT22;8239;48.594;8.598;2022-09-24T09:32:04;14.60;99.90
16263;DHT22;8239;48.594;8.598;2022-09-24T09:34:45;14.80;99.90
16263;DHT22;8239;48.594;8.598;2022-09-24T09:37:20;14.90;99.90
16263;DHT22;8239;48.594;8.598;2022-09-24T09:39:56;14.80;99.90
16263;DHT22;8239;48.594;8.598;2022-09-24T09:42:29;14.60;99.90
16263;DHT22;8239;48.594;8.598;2022-09-24T09:45:01;14.40;99.90
16263;DHT22;8239;48.594;8.598;2022-09-24T09:47:39;14.30;99.90
16263;DHT22;8239;48.594;8.598;2022-09-24T09:50:14;14.20;99.90
16263;DHT22;8239;48.594;8.598;2022-09-24T09:52:45;14.20;99.90
16263;DHT22;8239;48.594;8.598;2022-09-24T09:55:21;14.20;99.90
16263;DHT22;8239;48.594;8.598;2022-09-24T09:57:50;14.30;99.90
16263;DHT22;8239;48.594;8.598;2022-09-24T10:00:33;14.60;99.90
16263;DHT22;8239;48.594;8.598;2022-09-24T10:03:01;15.00;99.90
16263;DHT22;8239;48.594;8.598;2022-09-24T10:05:29;15.50;99.90
16263;DHT22;8239;48.594;8.598;2022-09-24T10:07:56;15.90;99.90
16263;DHT22;8239;48.594;8.598;2022-09-24T10:10:25;16.10;99.90
16263;DHT22;8239;48.594;8.598;2022-09-24T10:12:53;16.10;99.90
16263;DHT22;8239;48.594;8.598;2022-09-24T10:15:22;16.10;99.90
16263;DHT22;8239;48.594;8.598;2022-09-24T10:17:53;15.90;99.90
16263;DHT22;8239;48.594;8.598;2022-09-24T10:20:22;15.80;99.90
16263;DHT22;8239;48.594;8.598;2022-09-24T10:22:55;15.80;99.90
16263;DHT22;8239;48.594;8.598;2022-09-24T10:25:24;15.70;99.90
16263;DHT22;8239;48.594;8.598;2022-09-24T10:27:53;15.60;99.90
16263;DHT22;8239;48.594;8.598;2022-09-24T10:30:49;15.50;99.90
16263;DHT22;8239;48.594;8.598;2022-09-24T10:33:17;15.20;99.90
16263;DHT22;8239;48.594;8.598;2022-09-24T10:35:44;15.10;99.90
16263;DHT22;8239;48.594;8.598;2022-09-24T10:38:15;15.00;99.90
16263;DHT22;8239;48.594;8.598;2022-09-24T10:40:43;14.90;99.90
16263;DHT22;8239;48.594;8.598;2022-09-24T10:43:16;15.00;99.90
16263;DHT22;8239;48.594;8.598;2022-09-24T10:46:08;15.10;99.90
16263;DHT22;8239;48.594;8.598;2022-09-24T10:48:42;15.20;99.90
16263;DHT22;8239;48.594;8.598;2022-09-24T10:51:19;15.30;99.90
16263;DHT22;8239;48.594;8.598;2022-09-24T10:54:00;15.30;99.90
16263;DHT22;8239;48.594;8.598;2022-09-24T10:56:34;15.40;99.90
16263;DHT22;8239;48.594;8.598;2022-09-24T10:59:24;15.30;99.90
16263;DHT22;8239;48.594;8.598;2022-09-24T11:02:08;15.20;99.90
16263;DHT22;8239;48.594;8.598;2022-09-24T11:04:49;15.10;99.90
16263;DHT22;8239;48.594;8.598;2022-09-24T11:07:43;14.90;99.90
16263;DHT22;8239;48.594;8.598;2022-09-24T11:10:20;14.80;99.90
16263;DHT22;8239;48.594;8.598;2022-09-24T11:12:58;14.80;99.90
16263;DHT22;8239;48.594;8.598;2022-09-24T11:15:40;14.70;99.90
16263;DHT22;8239;48.594;8.598;2022-09-24T11:18:21;14.70;99.90
16263;DHT22;8239;48.594;8.598;2022-09-24T11:21:00;14.70;99.90
16263;DHT22;8239;48.594;8.598;2022-09-24T11:23:45;14.70;99.90
16263;DHT22;8239;48.594;8.598;2022-09-24T11:26:25;14.70;99.90
16263;DHT22;8239;48.594;8.598;2022-09-24T11:29:08;14.80;99.90
16263;DHT22;8239;48.594;8.598;2022-09-24T11:31:40;14.80;99.90
16263;DHT22;8239;48.594;8.598;2022-09-24T11:34:24;14.80;99.90
16263;DHT22;8239;48.594;8.598;2022-09-24T11:37:07;14.90;99.90
16263;DHT22;8239;48.594;8.598;2022-09-24T11:39:54;15.00;99.90
16263;DHT22;8239;48.594;8.598;2022-09-24T11:42:26;15.10;99.90
16263;DHT22;8239;48.594;8.598;2022-09-24T11:45:17;15.20;99.90
16263;DHT22;8239;48.594;8.598;2022-09-24T11:48:04;15.40;99.90
16263;DHT22;8239;48.594;8.598;2022-09-24T11:50:43;15.60;99.90
16263;DHT22;8239;48.594;8.598;2022-09-24T11:53:25;15.80;99.90
16263;DHT22;8239;48.594;8.598;2022-09-24T11:56:00;15.90;99.90
16263;DHT22;8239;48.594;8.598;2022-09-24T11:58:30;16.00;99.90
16263;DHT22;8239;48.594;8.598;2022-09-24T12:01:05;16.00;99.90
16263;DHT22;8239;48.594;8.598;2022-09-24T12:03:41;16.00;99.90
16263;DHT22;8239;48.594;8.598;2022-09-24T12:06:12;16.00;99.90
16263;DHT22;8239;48.594;8.598;2022-09-24T12:08:47;15.90;99.90
16263;DHT22;8239;48.594;8.598;2022-09-24T12:11:19;15.90;99.90
16263;DHT22;8239;48.594;8.598;2022-09-24T12:13:49;15.80;99.90
16263;DHT22;8239;48.594;8.598;2022-09-24T12:16:21;15.80;99.90
16263;DHT22;8239;48.594;8.598;2022-09-24T12:18:54;15.70;99.90
16263;DHT22;8239;48.594;8.598;2022-09-24T12:21:26;15.70;99.90
16263;DHT22;8239;48.594;8.598;2022-09-24T12:26:27;15.70;99.90
16263;DHT22;8239;48.594;8.598;2022-09-24T12:28:59;15.70;99.90
16263;DHT22;8239;48.594;8.598;2022-09-24T12:31:51;15.80;99.90
16263;DHT22;8239;48.594;8.598;2022-09-24T12:34:44;15.80;99.90
16263;DHT22;8239;48.594;8.598;2022-09-24T12:37:19;15.90;99.90
16263;DHT22;8239;48.594;8.598;2022-09-24T12:39:51;15.90;99.90
16263;DHT22;8239;48.594;8.598;2022-09-24T12:42:23;16.00;99.90
16263;DHT22;8239;48.594;8.598;2022-09-24T12:44:54;16.20;99.90
16263;DHT22;8239;48.594;8.598;2022-09-24T12:47:25;16.30;99.90
16263;DHT22;8239;48.594;8.598;2022-09-24T12:49:55;16.50;99.90
16263;DHT22;8239;48.594;8.598;2022-09-24T12:52:24;16.80;99.90
16263;DHT22;8239;48.594;8.598;2022-09-24T12:54:55;17.30;99.90
16263;DHT22;8239;48.594;8.598;2022-09-24T12:57:29;17.90;99.90
16263;DHT22;8239;48.594;8.598;2022-09-24T12:59:59;18.70;99.90
16263;DHT22;8239;48.594;8.598;2022-09-24T13:02:42;19.60;99.90
16263;DHT22;8239;48.594;8.598;2022-09-24T13:05:26;20.60;99.90
16263;DHT22;8239;48.594;8.598;2022-09-24T13:07:58;22.50;99.90
16263;DHT22;8239;48.594;8.598;2022-09-24T13:10:27;24.40;94.80
16263;DHT22;8239;48.594;8.598;2022-09-24T13:12:58;26.10;87.20
16263;DHT22;8239;48.594;8.598;2022-09-24T13:15:30;27.70;74.80
16263;DHT22;8239;48.594;8.598;2022-09-24T13:18:04;29.00;67.70
16263;DHT22;8239;48.594;8.598;2022-09-24T13:20:32;29.90;61.90
16263;DHT22;8239;48.594;8.598;2022-09-24T13:23:12;29.50;56.30
16263;DHT22;8239;48.594;8.598;2022-09-24T13:25:40;28.40;56.20
16263;DHT22;8239;48.594;8.598;2022-09-24T13:28:22;27.10;58.90
16263;DHT22;8239;48.594;8.598;2022-09-24T13:30:55;25.60;60.10
16263;DHT22;8239;48.594;8.598;2022-09-24T13:33:27;24.40;63.70
16263;DHT22;8239;48.594;8.598;2022-09-24T13:36:09;23.60;66.60
16263;DHT22;8239;48.594;8.598;2022-09-24T13:38:43;22.90;68.50
16263;DHT22;8239;48.594;8.598;2022-09-24T13:41:26;22.40;69.80
16263;DHT22;8239;48.594;8.598;2022-09-24T13:44:01;21.80;71.70
16263;DHT22;8239;48.594;8.598;2022-09-24T13:46:30;21.20;73.70
16263;DHT22;8239;48.594;8.598;2022-09-24T13:49:02;20.60;76.20
16263;DHT22;8239;48.594;8.598;2022-09-24T13:51:35;20.10;78.70
16263;DHT22;8239;48.594;8.598;2022-09-24T13:54:06;19.50;81.40
16263;DHT22;8239;48.594;8.598;2022-09-24T13:56:37;19.00;85.00
16263;DHT22;8239;48.594;8.598;2022-09-24T13:59:11;18.60;87.60
16263;DHT22;8239;48.594;8.598;2022-09-24T14:01:40;18.30;90.60
16263;DHT22;8239;48.594;8.598;2022-09-24T14:04:15;18.20;92.60
16263;DHT22;8239;48.594;8.598;2022-09-24T14:06:45;18.10;93.60
16263;DHT22;8239;48.594;8.598;2022-09-24T14:09:31;18.00;94.60
16263;DHT22;8239;48.594;8.598;2022-09-24T14:12:01;18.00;95.50
16263;DHT22;8239;48.594;8.598;2022-09-24T14:14:34;18.00;95.60
16263;DHT22;8239;48.594;8.598;2022-09-24T14:17:08;18.10;96.10
16263;DHT22;8239;48.594;8.598;2022-09-24T14:19:35;18.30;96.30
16263;DHT22;8239;48.594;8.598;2022-09-24T14:22:03;18.40;96.10
16263;DHT22;8239;48.594;8.598;2022-09-24T14:24:34;18.40;96.50
16263;DHT22;8239;48.594;8.598;2022-09-24T14:27:03;18.60;96.50
16263;DHT22;8239;48.594;8.598;2022-09-24T14:29:39;18.70;96.20
16263;DHT22;8239;48.594;8.598;2022-09-24T14:32:20;18.80;95.80
16263;DHT22;8239;48.594;8.598;2022-09-24T14:34:51;19.10;96.10
16263;DHT22;8239;48.594;8.598;2022-09-24T14:37:21;19.60;96.00
16263;DHT22;8239;48.594;8.598;2022-09-24T14:39:57;21.10;94.70
16263;DHT22;8239;48.594;8.598;2022-09-24T14:42:30;23.20;90.20
16263;DHT22;8239;48.594;8.598;2022-09-24T14:45:01;25.60;78.50
16263;DHT22;8239;48.594;8.598;2022-09-24T14:47:31;27.90;64.10
16263;DHT22;8239;48.594;8.598;2022-09-24T14:49:58;29.60;57.60
16263;DHT22;8239;48.594;8.598;2022-09-24T14:52:31;31.00;53.30
16263;DHT22;8239;48.594;8.598;2022-09-24T14:55:16;31.60;50.80
16263;DHT22;8239;48.594;8.598;2022-09-24T14:57:45;32.20;49.20
16263;DHT22;8239;48.594;8.598;2022-09-24T15:00:25;32.90;45.50
16263;DHT22;8239;48.594;8.598;2022-09-24T15:02:57;32.40;44.10
16263;DHT22;8239;48.594;8.598;2022-09-24T15:05:27;32.00;45.10
16263;DHT22;8239;48.594;8.598;2022-09-24T15:08:16;32.00;44.00
16263;DHT22;8239;48.594;8.598;2022-09-24T15:10:51;32.00;42.80
16263;DHT22;8239;48.594;8.598;2022-09-24T15:13:21;31.40;42.20
16263;DHT22;8239;48.594;8.598;2022-09-24T15:16:05;30.40;42.50
16263;DHT22;8239;48.594;8.598;2022-09-24T15:18:33;29.30;44.50
16263;DHT22;8239;48.594;8.598;2022-09-24T15:21:01;28.40;45.50
16263;DHT22;8239;48.594;8.598;2022-09-24T15:23:32;27.20;46.80
16263;DHT22;8239;48.594;8.598;2022-09-24T15:26:00;25.70;49.10
16263;DHT22;8239;48.594;8.598;2022-09-24T15:28:27;24.40;51.70
16263;DHT22;8239;48.594;8.598;2022-09-24T15:30:56;23.10;53.90
16263;DHT22;8239;48.594;8.598;2022-09-24T15:33:29;22.20;56.00
16263;DHT22;8239;48.594;8.598;2022-09-24T15:36:01;21.60;58.00
16263;DHT22;8239;48.594;8.598;2022-09-24T15:38:29;21.40;61.70
16263;DHT22;8239;48.594;8.598;2022-09-24T15:40:57;21.60;62.50
16263;DHT22;8239;48.594;8.598;2022-09-24T15:43:26;21.80;63.30
16263;DHT22;8239;48.594;8.598;2022-09-24T15:45:54;21.80;64.60
16263;DHT22;8239;48.594;8.598;2022-09-24T15:48:21;22.30;64.30
16263;DHT22;8239;48.594;8.598;2022-09-24T15:50:50;22.80;62.50
16263;DHT22;8239;48.594;8.598;2022-09-24T15:53:19;22.80;61.10
16263;DHT22;8239;48.594;8.598;2022-09-24T15:55:51;22.30;61.30
16263;DHT22;8239;48.594;8.598;2022-09-24T15:58:19;21.60;63.50
16263;DHT22;8239;48.594;8.598;2022-09-24T16:00:47;21.30;64.70
16263;DHT22;8239;48.594;8.598;2022-09-24T16:03:18;21.50;66.30
16263;DHT22;8239;48.594;8.598;2022-09-24T16:05:46;21.40;64.40
16263;DHT22;8239;48.594;8.598;2022-09-24T16:08:16;21.00;64.20
16263;DHT22;8239;48.594;8.598;2022-09-24T16:10:44;20.30;65.80
16263;DHT22;8239;48.594;8.598;2022-09-24T16:13:12;19.50;67.50
16263;DHT22;8239;48.594;8.598;2022-09-24T16:15:47;18.70;70.10
16263;DHT22;8239;48.594;8.598;2022-09-24T16:18:19;18.00;72.90
16263;DHT22;8239;48.594;8.598;2022-09-24T16:20:50;17.40;76.40
16263;DHT22;8239;48.594;8.598;2022-09-24T16:23:19;16.90;79.60